AirNav   Pilot Hours Calculator
 
 733 users online  

8MO9 Mercy Hospital St Louis Heliport
St Louis, Missouri, USA

GOING TO ST LOUIS?


FAA INFORMATION EFFECTIVE 26 MARCH 2020

Location

FAA Identifier: 8MO9
Lat/Long: 38-38-37.2100N 090-26-54.0100W
38-38.620167N 090-26.900167W
38.6436694,-90.4483361
(estimated)
Elevation: 633 ft. / 193 m (estimated)
Variation: 02E (1985)
Time zone: UTC -5 (UTC -6 during Standard Time)
Zip code: 63141

Heliport Operations

Heliport use: Private use, MEDICAL.
Activation date: 08/1973
Control tower: no
ARTCC: KANSAS CITY CENTER
FSS: SAINT LOUIS FLIGHT SERVICE STATION
Attendance: CONTINUOUS
FOR SVC CALL 314-251-1050.
Wind indicator: yes
Segmented circle: no
Lights: FOR LGTS CALL 314-251-6050.

Heliport Communications

WX ASOS at STL (7 nm NE): 125.025 (314-890-4790)
WX ASOS at SUS (10 nm W): 134.8 (314-890-7255)
WX ASOS at CPS (14 nm E): PHONE 618-332-0001
WX ASOS at SET (17 nm N): 118.075 (636-250-4590)

Nearby radio navigation aids

VOR radial/distance  VOR name  Freq  Var
STLr172/13.1ST LOUIS VORTAC117.4001E
FTZr092/24.7FORISTELL VORTAC110.8005E
TOYr253/25.5TROY VORTAC116.0004E

 
NDB name  Hdg/Dist  Freq  Var  ID
EAVES115/5.122701WFZ ..-. --..
SNOOP090/14.932601WSU ... ..-
CIVIC MEMORIAL232/23.626301WCVM -.-. ...- --

Heliport Services

Airframe service: NONE
Powerplant service: NONE

Runway Information

Helipad H1

Dimensions: 135 x 90 ft. / 41 x 27 m
Surface: concrete
Runway edge lights: non-standard
40 WATT 33.81 C.P. 425 LUMINS.
Latitude: 38-38.620167N
Longitude: 090-26.900167W
Elevation: 633.0 ft.
Traffic pattern: leftleft

Heliport Ownership and Management from official FAA records

Ownership: Privately-owned
Owner: MERCY HOSPITAL ST. LOUIS
615 SOUTH NEW BALLAS RD.
ST LOUIS, MO 63141
Phone (314) 251-1900
Manager: NATASHA ZVENTEL, DIRECTOR
615 SOUTH NEW BALLAS ROAD
ST LOUIS, MO 63141
Phone (314) 251-4988
ADDITIONAL CONTACT: STEVE BOLLIN 314-251-1906 STEVE.BOLLIN@MERCY.NET

Heliport Operational Statistics

Aircraft based on the field: 3
Helicopters: 3
    

Additional Remarks

A52-H1 RWY H1 MERCY HOSPITAL ST. LOUIS BLDG LGTD & MKD; 658' PARKING LGT STD 25' SOUTH
FOR CD CTC ST LOUIS APCH AT 314-890-1018.

Instrument Procedures

There are no published instrument procedures at 8MO9.

Some nearby airports with instrument procedures:

1H0 - Creve Coeur Airport (6 nm NW)
KSTL - St Louis Lambert International Airport (7 nm NE)
KSUS - Spirit of St Louis Airport (10 nm W)
KCPS - St Louis Downtown Airport (14 nm E)
KSET - St Charles County Smartt Airport (17 nm N)
 
Loc | Ops | Rwys | IFR | FBO | Links
Com | Nav | Svcs | Stats | Notes

Kansas City Aviation Department
 
Area around 8MO9 (Mercy Hospital St Louis Heliport)
 
Road maps at: MapQuest Bing Google
 
Aerial photo
No photo
 
Sectional chart

 
Airport distance calculator
Flying to Mercy Hospital St Louis Heliport? Find the distance to fly.

From to 8MO9

Sunrise and sunset
Times for 02-Apr-2020
 Local
(UTC-5)
 Zulu
(UTC)
Morning civil twilight06:1811:18
Sunrise06:4511:45
Sunset19:2600:26
Evening civil twilight19:5300:53

Current date and time
Zulu (UTC)  03-Apr-2020 02:42:51
Local (UTC-5)  02-Apr-2020 21:42:51
 
METAR
KSTL 
7nm NE 
030151Z 15010KT 10SM SCT130 BKN250 18/05 A3001 RMK AO2 SLP160 T01780050
KSUS 
9nm W 
030154Z 10007KT 10SM CLR 18/06 A2997 RMK AO2 SLP149 T01780056
KCPS 
15nm E 
030153Z 17005KT 10SM CLR 16/07 A3001 RMK AO2 SLP161 T01610067
KSET 
17nm N 
030154Z AUTO 12008KT 10SM CLR 15/07 A2999 RMK AO2 SLP154 T01500067
TAF
KSTL 
7nm NE 
022052Z 0221/0324 14012G20KT P6SM SCT120 BKN250 FM030000 14012KT P6SM BKN250 FM030500 14008KT P6SM VCSH OVC080 FM032100 16007KT P6SM VCSH OVC030
KSUS 
9nm W 
021859Z 0219/0318 12010KT P6SM SCT250 FM022000 15012KT P6SM BKN250 FM030500 14007KT P6SM VCSH OVC090 FM031400 16008KT P6SM VCSH OVC040
KCPS 
15nm E 
021859Z 0219/0318 14012G20KT P6SM SCT250 FM030600 14007KT P6SM VCSH OVC090 FM031400 16008KT P6SM VCSH OVC060
NOTAMs
Click for the latest NOTAMs
NOTAMs are issued by the DoD/FAA and will open in a separate window not controlled by AirNav.

 

 
 

Would you like to see your business listed on this page?

 If your business provides an interesting product or service to pilots, flight crews, aircraft, or users of the Mercy Hospital St Louis Heliport, you should consider listing it here.  To start the listing process, click on the button below
 
Add a business
 

Other Pages about Mercy Hospital St Louis Heliport

Update a link
 
Copyright © AirNav, LLC. All rights reserved. Privacy Policy  Contact